createdAt,value
2023-01-07T00:01:44.538Z,-65
2023-01-07T00:04:16.436Z,-70
2023-01-07T00:06:47.250Z,-70
2023-01-07T00:09:17.445Z,-69
2023-01-07T00:11:46.522Z,-70
2023-01-07T00:14:16.278Z,-70
2023-01-07T00:16:44.858Z,-71
2023-01-07T00:19:17.322Z,-71
2023-01-07T00:21:45.519Z,-71
2023-01-07T00:24:14.025Z,-71
2023-01-07T00:26:42.489Z,-71
2023-01-07T00:29:11.051Z,-70
2023-01-07T00:31:42.344Z,-70
2023-01-07T00:34:11.333Z,-70
2023-01-07T00:36:43.904Z,-71
2023-01-07T00:39:16.526Z,-70
2023-01-07T00:42:07.447Z,-70
2023-01-07T00:44:37.626Z,-70
2023-01-07T00:47:06.428Z,-70
2023-01-07T00:49:34.592Z,-70
2023-01-07T00:52:04.152Z,-70
2023-01-07T00:54:32.434Z,-71
2023-01-07T00:57:00.570Z,-70
2023-01-07T00:59:28.685Z,-69
2023-01-07T01:01:56.988Z,-70
2023-01-07T01:04:25.154Z,-69
2023-01-07T01:06:53.300Z,-70
2023-01-07T01:09:25.290Z,-70
2023-01-07T01:11:53.407Z,-70
2023-01-07T01:14:21.541Z,-69
2023-01-07T01:16:49.742Z,-70
2023-01-07T01:19:18.242Z,-71
2023-01-07T01:21:46.393Z,-71
2023-01-07T01:24:14.644Z,-69
2023-01-07T01:26:44.144Z,-69
2023-01-07T01:29:12.227Z,-72
2023-01-07T01:31:40.474Z,-70
2023-01-07T01:34:08.646Z,-69
2023-01-07T01:36:37.070Z,-70
2023-01-07T01:39:05.401Z,-70
2023-01-07T01:41:33.596Z,-71
2023-01-07T01:44:03.579Z,-70
2023-01-07T01:46:39.686Z,-70
2023-01-07T01:49:22.071Z,-69
2023-01-07T01:51:57.241Z,-70
2023-01-07T01:54:28.398Z,-70
2023-01-07T01:57:01.940Z,-70
2023-01-07T01:59:37.493Z,-71
2023-01-07T02:02:07.467Z,-70
2023-01-07T02:04:38.043Z,-69
2023-01-07T02:07:10.561Z,-71
2023-01-07T02:09:38.843Z,-71
2023-01-07T02:12:19.446Z,-70
2023-01-07T02:15:10.299Z,-71
2023-01-07T02:17:56.592Z,-71
2023-01-07T02:20:41.538Z,-70
2023-01-07T02:24:24.177Z,-70
2023-01-07T02:27:18.395Z,-71
2023-01-07T02:30:36.925Z,-70
2023-01-07T02:33:33.854Z,-70
2023-01-07T02:36:41.714Z,-70
2023-01-07T02:39:31.511Z,-71
2023-01-07T02:42:03.451Z,-71
2023-01-07T02:44:42.748Z,-70
2023-01-07T02:47:19.258Z,-70
2023-01-07T02:49:50.843Z,-68
2023-01-07T02:52:24.449Z,-70
2023-01-07T02:55:00.908Z,-70
2023-01-07T02:58:15.205Z,-70
2023-01-07T03:01:38.915Z,-69
2023-01-07T03:04:33.659Z,-70
2023-01-07T03:07:31.159Z,-71
2023-01-07T03:10:11.497Z,-70
2023-01-07T03:12:47.350Z,-70
2023-01-07T03:15:24.121Z,-70
2023-01-07T03:18:01.307Z,-71
2023-01-07T03:20:33.127Z,-70
2023-01-07T03:23:09.752Z,-71
2023-01-07T03:25:45.890Z,-71
2023-01-07T03:28:18.794Z,-72
2023-01-07T03:30:50.200Z,-71
2023-01-07T03:33:27.579Z,-69
2023-01-07T03:36:00.974Z,-70
2023-01-07T03:38:31.787Z,-70
2023-01-07T03:41:00.237Z,-69
2023-01-07T03:43:27.415Z,-71
2023-01-07T03:45:58.629Z,-72
2023-01-07T03:48:26.923Z,-69
2023-01-07T03:50:55.054Z,-70
2023-01-07T03:53:23.174Z,-71
2023-01-07T03:55:52.661Z,-69
2023-01-07T03:58:20.814Z,-70
2023-01-07T04:00:48.918Z,-70
2023-01-07T04:03:17.126Z,-70
2023-01-07T04:05:45.223Z,-70
2023-01-07T04:08:13.414Z,-70
2023-01-07T04:10:41.699Z,-71
2023-01-07T04:13:11.166Z,-71
2023-01-07T04:15:39.260Z,-69
2023-01-07T04:18:07.426Z,-71
2023-01-07T04:20:35.811Z,-70
2023-01-07T04:23:04.139Z,-71
2023-01-07T04:25:32.643Z,-70
2023-01-07T04:28:00.766Z,-71
2023-01-07T04:30:30.308Z,-71
2023-01-07T04:32:58.445Z,-71
2023-01-07T04:35:26.667Z,-70
2023-01-07T04:37:54.769Z,-70
2023-01-07T04:40:22.926Z,-70
2023-01-07T04:42:51.053Z,-69
2023-01-07T04:45:19.310Z,-71
2023-01-07T04:47:48.916Z,-70
2023-01-07T04:50:17.527Z,-72
2023-01-07T04:52:45.668Z,-70
2023-01-07T04:55:13.840Z,-70
2023-01-07T04:57:41.959Z,-70
2023-01-07T05:00:12.194Z,-70
2023-01-07T05:02:40.457Z,-71
2023-01-07T05:05:11.381Z,-71
2023-01-07T05:07:39.528Z,-70
2023-01-07T05:10:08.963Z,-70
2023-01-07T05:12:38.472Z,-70
2023-01-07T05:15:08.901Z,-70
2023-01-07T05:17:37.063Z,-71
2023-01-07T05:20:07.698Z,-70
2023-01-07T05:22:37.237Z,-70
2023-01-07T05:25:06.162Z,-70
2023-01-07T05:27:34.278Z,-69
2023-01-07T05:30:02.588Z,-70
2023-01-07T05:32:30.667Z,-71
2023-01-07T05:34:58.960Z,-70
2023-01-07T05:37:27.099Z,-70
2023-01-07T05:39:56.608Z,-68
2023-01-07T05:42:24.824Z,-69
2023-01-07T05:44:52.917Z,-71
2023-01-07T05:47:21.080Z,-70
2023-01-07T05:49:49.187Z,-71
2023-01-07T05:52:17.411Z,-70
2023-01-07T05:54:45.529Z,-71
2023-01-07T05:57:14.974Z,-70
2023-01-07T05:59:44.160Z,-70
2023-01-07T06:02:12.326Z,-69
2023-01-07T06:04:40.484Z,-69
2023-01-07T06:07:08.655Z,-71
2023-01-07T06:09:36.780Z,-70
2023-01-07T06:12:05.232Z,-70
2023-01-07T06:14:34.763Z,-70
2023-01-07T06:17:02.858Z,-70
2023-01-07T06:19:30.995Z,-71
2023-01-07T06:21:59.492Z,-70
2023-01-07T06:24:27.645Z,-71
2023-01-07T06:26:55.779Z,-69
2023-01-07T06:29:23.850Z,-71
2023-01-07T06:31:53.406Z,-70
2023-01-07T06:34:21.631Z,-70
2023-01-07T06:36:49.775Z,-69
2023-01-07T06:39:17.897Z,-69
2023-01-07T06:41:46.027Z,-69
2023-01-07T06:44:14.099Z,-72
2023-01-07T06:46:42.299Z,-69
2023-01-07T06:49:12.159Z,-70
2023-01-07T06:51:40.390Z,-69
2023-01-07T06:54:08.544Z,-69
2023-01-07T06:56:36.683Z,-70
2023-01-07T06:59:04.793Z,-69
2023-01-07T07:01:33.047Z,-71
2023-01-07T07:04:01.231Z,-71
2023-01-07T07:06:30.813Z,-71
2023-01-07T07:08:58.939Z,-70
2023-01-07T07:11:27.109Z,-61
2023-01-07T07:13:55.259Z,-59
2023-01-07T07:16:24.134Z,-60
2023-01-07T07:18:53.014Z,-60
2023-01-07T07:21:21.341Z,-58
2023-01-07T07:23:50.860Z,-61
2023-01-07T07:26:18.993Z,-59
2023-01-07T07:28:47.154Z,-60
2023-01-07T07:31:15.379Z,-59
2023-01-07T07:33:43.507Z,-60
2023-01-07T07:36:11.683Z,-60
2023-01-07T07:38:39.786Z,-60
2023-01-07T07:41:09.253Z,-60
2023-01-07T07:43:37.880Z,-59
2023-01-07T07:46:06.664Z,-60
2023-01-07T07:48:34.905Z,-60
2023-01-07T07:51:03.008Z,-59
2023-01-07T07:53:31.245Z,-61
2023-01-07T07:55:59.412Z,-61
2023-01-07T07:58:28.884Z,-60
2023-01-07T08:00:57.126Z,-60
2023-01-07T08:03:25.346Z,-59
2023-01-07T08:05:53.484Z,-60
2023-01-07T08:08:22.331Z,-60
2023-01-07T08:10:50.430Z,-59
2023-01-07T08:13:19.299Z,-59
2023-01-07T08:15:48.797Z,-60
2023-01-07T08:18:16.980Z,-60
2023-01-07T08:20:45.070Z,-60
2023-01-07T08:23:13.345Z,-61
2023-01-07T08:25:41.436Z,-60
2023-01-07T08:28:11.271Z,-61
2023-01-07T08:30:39.727Z,-61
2023-01-07T08:33:09.678Z,-60
2023-01-07T08:35:37.995Z,-62
2023-01-07T08:38:09.030Z,-60
2023-01-07T08:40:38.380Z,-59
2023-01-07T08:43:09.016Z,-60
2023-01-07T08:45:37.272Z,-62
2023-01-07T08:48:06.452Z,-60
2023-01-07T08:50:36.173Z,-62
2023-01-07T08:53:04.293Z,-71
2023-01-07T08:55:32.362Z,-71
2023-01-07T08:58:00.566Z,-68
2023-01-07T09:00:29.233Z,-70
2023-01-07T09:02:57.434Z,-70
2023-01-07T09:05:25.577Z,-70
2023-01-07T09:07:56.772Z,-71
2023-01-07T09:10:25.486Z,-70
2023-01-07T09:12:53.650Z,-70
2023-01-07T09:15:21.789Z,-69
2023-01-07T09:17:49.971Z,-70
2023-01-07T09:20:18.468Z,-70
2023-01-07T09:22:46.950Z,-71
2023-01-07T09:25:16.588Z,-71
2023-01-07T09:27:45.685Z,-70
2023-01-07T09:30:14.760Z,-71
2023-01-07T09:32:44.404Z,-69
2023-01-07T09:35:13.070Z,-70
2023-01-07T09:37:41.614Z,-70
2023-01-07T09:40:22.610Z,-70
2023-01-07T09:43:00.448Z,-70
2023-01-07T09:45:34.036Z,-70
2023-01-07T09:48:07.975Z,-70
2023-01-07T09:50:53.318Z,-69
2023-01-07T09:53:28.601Z,-70
2023-01-07T09:56:11.872Z,-69
2023-01-07T09:58:46.155Z,-69
2023-01-07T10:01:27.402Z,-70
2023-01-07T10:04:16.495Z,-70
2023-01-07T10:06:57.923Z,-70
2023-01-07T10:09:44.354Z,-71
2023-01-07T10:12:27.166Z,-69
2023-01-07T10:15:36.839Z,-71
2023-01-07T10:18:25.146Z,-69
2023-01-07T10:21:10.645Z,-70
2023-01-07T10:23:43.285Z,-69
2023-01-07T10:26:29.904Z,-70
2023-01-07T10:29:07.857Z,-70
2023-01-07T10:31:37.911Z,-70
2023-01-07T10:34:15.253Z,-69
2023-01-07T10:37:00.974Z,-71
2023-01-07T10:39:46.535Z,-69
2023-01-07T10:42:23.825Z,-70
2023-01-07T10:45:24.401Z,-71
2023-01-07T10:48:21.249Z,-69
2023-01-07T10:51:07.288Z,-70
2023-01-07T10:53:58.898Z,-70
2023-01-07T10:56:36.900Z,-68
2023-01-07T10:59:06.367Z,-70
2023-01-07T11:01:40.324Z,-70
2023-01-07T11:04:15.262Z,-69
2023-01-07T11:06:50.941Z,-71
2023-01-07T11:09:24.493Z,-69
2023-01-07T11:11:55.322Z,-70
2023-01-07T11:14:31.122Z,-71
2023-01-07T11:17:12.801Z,-70
2023-01-07T11:19:49.013Z,-70
2023-01-07T11:22:36.841Z,-71
2023-01-07T11:25:28.745Z,-70
2023-01-07T11:28:03.044Z,-72
2023-01-07T11:30:34.507Z,-70
2023-01-07T11:33:07.929Z,-70
2023-01-07T11:35:37.538Z,-69
2023-01-07T11:38:30.443Z,-69
2023-01-07T11:41:00.808Z,-71
2023-01-07T11:43:34.833Z,-70
2023-01-07T11:46:19.498Z,-71
2023-01-07T11:48:54.559Z,-69
2023-01-07T11:51:24.596Z,-71
2023-01-07T11:53:57.813Z,-69
2023-01-07T11:56:29.648Z,-70
2023-01-07T11:59:29.748Z,-71
2023-01-07T12:02:00.571Z,-70
2023-01-07T12:04:33.652Z,-70
2023-01-07T12:07:05.820Z,-70
2023-01-07T12:09:38.690Z,-70
2023-01-07T12:12:34.600Z,-70
2023-01-07T12:15:07.813Z,-71
2023-01-07T12:17:37.205Z,-69
2023-01-07T12:21:01.994Z,-60
2023-01-07T12:23:43.796Z,-60
2023-01-07T12:26:19.336Z,-60
2023-01-07T12:29:07.323Z,-60
2023-01-07T12:31:48.962Z,-61
2023-01-07T12:34:38.305Z,-59
2023-01-07T12:37:20.503Z,-59
2023-01-07T12:39:55.930Z,-61
2023-01-07T12:42:30.151Z,-59
2023-01-07T12:45:06.317Z,-59
2023-01-07T12:47:40.588Z,-59
2023-01-07T12:50:17.553Z,-59
2023-01-07T12:52:53.125Z,-60
2023-01-07T12:55:27.651Z,-60
2023-01-07T12:58:14.900Z,-61
2023-01-07T13:00:53.611Z,-61
2023-01-07T13:03:44.277Z,-59
2023-01-07T13:06:19.885Z,-60
2023-01-07T13:09:03.137Z,-60
2023-01-07T13:11:54.889Z,-61
2023-01-07T13:14:29.448Z,-60
2023-01-07T13:17:06.196Z,-60
2023-01-07T13:19:34.304Z,-60
2023-01-07T13:22:02.642Z,-60
2023-01-07T13:24:56.416Z,-60
2023-01-07T13:27:39.912Z,-60
2023-01-07T13:30:25.487Z,-58
2023-01-07T13:33:13.493Z,-60
2023-01-07T13:36:01.936Z,-60
2023-01-07T13:39:11.855Z,-60
2023-01-07T13:42:02.758Z,-60
2023-01-07T13:45:01.684Z,-59
2023-01-07T13:47:43.691Z,-59
2023-01-07T13:50:26.106Z,-59
2023-01-07T13:53:01.913Z,-59
2023-01-07T13:55:38.940Z,-60
2023-01-07T13:58:45.716Z,-60
2023-01-07T14:01:15.984Z,-59
2023-01-07T14:03:49.590Z,-59
2023-01-07T14:06:40.566Z,-60
2023-01-07T14:09:38.762Z,-60
2023-01-07T14:13:12.976Z,-60
2023-01-07T14:16:07.755Z,-61
2023-01-07T14:19:08.168Z,-61
2023-01-07T14:22:00.540Z,-60
2023-01-07T14:25:06.376Z,-59
2023-01-07T14:28:09.902Z,-60
2023-01-07T14:30:46.448Z,-60
2023-01-07T14:33:22.856Z,-60
2023-01-07T14:35:59.320Z,-60
2023-01-07T14:39:01.779Z,-59
2023-01-07T14:41:30.010Z,-61
2023-01-07T14:44:21.463Z,-60
2023-01-07T14:46:52.565Z,-59
2023-01-07T14:50:01.894Z,-60
2023-01-07T14:53:43.015Z,-59
2023-01-07T14:56:33.550Z,-60
2023-01-07T14:59:30.582Z,-60
2023-01-07T15:03:19.354Z,-60
2023-01-07T15:06:09.946Z,-59
2023-01-07T15:09:06.496Z,-61
2023-01-07T15:11:54.257Z,-60
2023-01-07T15:14:47.464Z,-60
2023-01-07T15:17:17.702Z,-61
2023-01-07T15:19:46.358Z,-60
2023-01-07T15:22:54.673Z,-61
2023-01-07T15:25:42.972Z,-61
2023-01-07T15:28:20.760Z,-59
2023-01-07T15:31:00.110Z,-60
2023-01-07T15:33:53.704Z,-60
2023-01-07T15:36:22.232Z,-60
2023-01-07T15:38:54.218Z,-60
2023-01-07T15:41:33.317Z,-61
2023-01-07T15:44:05.337Z,-59
2023-01-07T15:46:34.769Z,-59
2023-01-07T15:49:18.826Z,-59
2023-01-07T15:51:49.503Z,-60
2023-01-07T15:54:37.060Z,-60
2023-01-07T15:57:11.244Z,-60
2023-01-07T15:59:45.616Z,-60
2023-01-07T16:02:27.486Z,-60
2023-01-07T16:05:00.838Z,-60
2023-01-07T16:07:32.866Z,-60
2023-01-07T16:10:02.793Z,-59
2023-01-07T16:12:36.264Z,-59
2023-01-07T16:15:29.990Z,-60
2023-01-07T16:18:00.729Z,-60
2023-01-07T16:20:33.066Z,-60
2023-01-07T16:23:22.353Z,-59
2023-01-07T16:25:57.891Z,-59
2023-01-07T16:28:29.950Z,-60
2023-01-07T16:31:00.030Z,-60
2023-01-07T16:33:32.567Z,-59
2023-01-07T16:36:03.349Z,-60
2023-01-07T16:38:36.450Z,-59
2023-01-07T16:41:06.524Z,-60
2023-01-07T16:43:45.110Z,-60
2023-01-07T16:46:31.756Z,-60
2023-01-07T16:49:29.398Z,-60
2023-01-07T16:52:07.808Z,-60
2023-01-07T16:54:39.974Z,-60
2023-01-07T16:57:38.805Z,-60
2023-01-07T17:00:20.129Z,-58
2023-01-07T17:02:56.075Z,-58
2023-01-07T17:05:27.252Z,-60
2023-01-07T17:08:00.312Z,-60
2023-01-07T17:10:33.258Z,-60
2023-01-07T17:13:05.425Z,-60
2023-01-07T17:15:40.017Z,-61
2023-01-07T17:18:30.379Z,-61
2023-01-07T17:21:01.246Z,-59
2023-01-07T17:23:45.511Z,-60
2023-01-07T17:26:23.001Z,-60
2023-01-07T17:28:55.885Z,-60
2023-01-07T17:31:25.327Z,-60
2023-01-07T17:33:54.890Z,-61
2023-01-07T17:36:25.943Z,-59
2023-01-07T17:38:54.715Z,-59
2023-01-07T17:41:42.285Z,-71
2023-01-07T17:44:14.475Z,-71
2023-01-07T17:46:43.566Z,-69
2023-01-07T17:49:12.721Z,-71
2023-01-07T17:51:44.128Z,-72
2023-01-07T17:54:22.675Z,-71
2023-01-07T17:56:52.033Z,-71
2023-01-07T17:59:24.069Z,-70
2023-01-07T18:01:56.560Z,-72
2023-01-07T18:04:25.130Z,-72
2023-01-07T18:06:53.273Z,-72
2023-01-07T18:09:21.416Z,-69
2023-01-07T18:12:06.893Z,-71
2023-01-07T18:14:36.337Z,-71
2023-01-07T18:17:04.776Z,-69
2023-01-07T18:19:32.825Z,-70
2023-01-07T18:22:00.881Z,-71
2023-01-07T18:24:29.005Z,-70
2023-01-07T18:26:57.071Z,-70
2023-01-07T18:29:25.301Z,-70
2023-01-07T18:31:54.915Z,-70
2023-01-07T18:34:23.029Z,-70
2023-01-07T18:36:51.086Z,-70
2023-01-07T18:39:20.570Z,-71
2023-01-07T18:41:50.076Z,-70
2023-01-07T18:44:19.171Z,-71
2023-01-07T18:46:47.303Z,-70
2023-01-07T18:49:17.073Z,-70
2023-01-07T18:51:47.852Z,-72
2023-01-07T18:54:17.048Z,-72
2023-01-07T18:56:46.160Z,-70
2023-01-07T18:59:14.605Z,-70
2023-01-07T19:01:43.081Z,-70
2023-01-07T19:04:11.330Z,-70
2023-01-07T19:06:40.780Z,-70
2023-01-07T19:09:08.834Z,-69
2023-01-07T19:11:38.209Z,-71
2023-01-07T19:14:06.317Z,-61
2023-01-07T19:16:34.504Z,-60
2023-01-07T19:19:02.876Z,-60
2023-01-07T19:21:31.061Z,-61
2023-01-07T19:24:03.618Z,-60
2023-01-07T19:26:33.653Z,-59
2023-01-07T19:29:01.840Z,-59
2023-01-07T19:31:29.930Z,-59
2023-01-07T19:33:58.033Z,-60
2023-01-07T19:36:26.118Z,-59
2023-01-07T19:38:54.188Z,-60
2023-01-07T19:41:24.625Z,-60
2023-01-07T19:43:59.043Z,-60
2023-01-07T19:46:28.703Z,-60
2023-01-07T19:48:56.803Z,-60
2023-01-07T19:51:24.895Z,-60
2023-01-07T19:53:52.975Z,-60
2023-01-07T19:56:21.050Z,-60
2023-01-07T19:58:54.036Z,-60
2023-01-07T20:01:26.381Z,-61
2023-01-07T20:03:56.291Z,-60
2023-01-07T20:06:27.488Z,-59
2023-01-07T20:08:57.500Z,-60
2023-01-07T20:11:26.941Z,-59
2023-01-07T20:13:56.370Z,-62
2023-01-07T20:16:25.516Z,-59
2023-01-07T20:18:56.450Z,-61
2023-01-07T20:21:27.487Z,-60
2023-01-07T20:23:56.437Z,-59
2023-01-07T20:26:27.148Z,-61
2023-01-07T20:28:58.200Z,-60
2023-01-07T20:31:28.450Z,-60
2023-01-07T20:33:57.393Z,-61
2023-01-07T20:36:28.509Z,-60
2023-01-07T20:38:57.100Z,-60
2023-01-07T20:41:28.534Z,-60
2023-01-07T20:44:00.379Z,-60
2023-01-07T20:46:31.147Z,-60
2023-01-07T20:48:59.559Z,-60
2023-01-07T20:51:28.738Z,-61
2023-01-07T20:53:57.171Z,-60
2023-01-07T20:56:31.678Z,-60
2023-01-07T20:59:02.853Z,-60
2023-01-07T21:01:31.256Z,-60
2023-01-07T21:04:01.738Z,-61
2023-01-07T21:06:29.953Z,-60
2023-01-07T21:08:58.258Z,-61
2023-01-07T21:11:27.171Z,-60
2023-01-07T21:13:56.310Z,-61
2023-01-07T21:16:27.398Z,-60
2023-01-07T21:18:55.718Z,-60
2023-01-07T21:21:25.587Z,-61
2023-01-07T21:23:54.682Z,-60
2023-01-07T21:26:24.772Z,-60
2023-01-07T21:28:56.431Z,-61
2023-01-07T21:31:27.235Z,-59
2023-01-07T21:33:57.446Z,-60
2023-01-07T21:36:27.562Z,-60
2023-01-07T21:38:57.692Z,-61
2023-01-07T21:41:27.981Z,-60
2023-01-07T21:43:56.641Z,-60
2023-01-07T21:46:26.339Z,-59
2023-01-07T21:48:54.430Z,-59
2023-01-07T21:51:25.916Z,-60
2023-01-07T21:53:56.543Z,-59
2023-01-07T21:56:27.266Z,-59
2023-01-07T21:58:55.425Z,-60
2023-01-07T22:01:28.517Z,-59
2023-01-07T22:03:59.823Z,-60
2023-01-07T22:06:31.046Z,-60
2023-01-07T22:09:01.042Z,-62
2023-01-07T22:11:29.591Z,-59
2023-01-07T22:13:59.818Z,-60
2023-01-07T22:16:31.725Z,-60
2023-01-07T22:19:01.102Z,-60
2023-01-07T22:21:29.755Z,-60
2023-01-07T22:23:57.849Z,-60
2023-01-07T22:26:25.907Z,-60
2023-01-07T22:28:58.834Z,-60
2023-01-07T22:31:31.269Z,-58
2023-01-07T22:34:00.133Z,-59
2023-01-07T22:36:37.662Z,-60
2023-01-07T22:39:10.793Z,-61
2023-01-07T22:41:39.625Z,-61
2023-01-07T22:44:14.022Z,-59
2023-01-07T22:46:48.979Z,-61
2023-01-07T22:49:17.989Z,-60
2023-01-07T22:51:50.017Z,-59
2023-01-07T22:54:19.509Z,-61
2023-01-07T22:56:48.334Z,-60
2023-01-07T22:59:16.662Z,-60
2023-01-07T23:01:46.043Z,-59
2023-01-07T23:04:14.205Z,-60
2023-01-07T23:06:42.309Z,-60
2023-01-07T23:09:10.339Z,-59
2023-01-07T23:11:50.823Z,-61
2023-01-07T23:14:21.756Z,-59
2023-01-07T23:16:53.053Z,-59
2023-01-07T23:19:23.251Z,-60
2023-01-07T23:21:54.554Z,-59
2023-01-07T23:24:24.276Z,-60
2023-01-07T23:26:54.929Z,-60
2023-01-07T23:29:23.546Z,-60
2023-01-07T23:31:53.386Z,-61
2023-01-07T23:34:21.927Z,-60
2023-01-07T23:36:50.081Z,-59
2023-01-07T23:39:18.183Z,-60
2023-01-07T23:41:46.320Z,-60
2023-01-07T23:44:14.627Z,-61
2023-01-07T23:46:42.785Z,-61
2023-01-07T23:49:12.248Z,-60
2023-01-07T23:51:42.095Z,-60
2023-01-07T23:54:10.827Z,-59
2023-01-07T23:56:39.080Z,-60
2023-01-07T23:59:07.498Z,-61
